Serra Negra Do Norte, Brazil
Current Conditions -  °F | °C
As of 3:00 AM on Friday 24 Oct 2014 (Local Time) from SBKG Reporting Station
Light Rain Light Rain  
Wind Chill: 68°   Ceiling: 1200
Heat Index: 68°   Visibility: 4mi
Dew Point: 68°   Wind: 3mph
Humidity: 100%   Direction: 100°E
Pressure: 29.97"   Gusts: NA
Location:  6.67°S, 37.4°W
Report Text: SBKG 240600Z 10003KT 6000 -RA SCT003 BKN012 BKN070 20/20 Q1015
Loading
Personal Weather Stations






























Interactive Weather Map
Tropical Storm Tracking
New forecast layout! Learn more

10-Day Weather Forecast

Advertisements
Track Severe Weather on mobile